Hanjin Philadelphia — A8CN8 — position and weather

sailwx.info

Track history (hours):
 
Tides and Currents Weather Stations Pressure Air Temp Water Temp Dewpoint Dewpoint Depression Visibility Wind Speed Wind Dir Waves Ship Positions

Hanjin Philadelphia

Last reported at 2014-Nov-22 00:00 UTC. Time now 2014-Nov-22 01:55 UTC.
Position N 05°30' E 081°18'.

Length 282.1 m; beam 32.2 m; draft 13 m.

Type: Ship. MMSI: 636026894.

Wind from 230 at 16 knots

Barometer 1010.0 mb
Air temperature 25.5 ° C
Visibility: greater than 5.4 NM
Dewpoint 24.1 ° C
Water temperature 28.2 ° C

Date/timePositionNaut miles runAvg speedWind from/ knotsBaromVisibWave heightAir tempDewpointWater temp
2014-Nov-22 00:00N 05°30' E 081°18'20917.4 230 / 161010.0 5.4 25.524.128.2
2014-Nov-21 12:00N 05°30' E 084°48'   340 / 121009.0 5.4 27.024.329.3
2014-Nov-18 13:20N 01°12' E 103°33'1012.7
2014-Nov-18 12:32N 01°15' E 103°43'3 3.0
2014-Nov-18 11:33N 01°17' E 103°45'0 0.0
2014-Nov-18 10:32N 01°17' E 103°45'0 0.0
2014-Nov-18 09:32N 01°17' E 103°45'0 0.0
2014-Nov-18 08:20N 01°17' E 103°45'0 0.0
2014-Nov-18 07:32N 01°17' E 103°45'0 0.0
2014-Nov-18 06:32N 01°17' E 103°45'0 0.0
2014-Nov-18 05:32N 01°17' E 103°45'0 0.0
2014-Nov-18 04:24N 01°17' E 103°45'0 0.0
2014-Nov-18 03:33N 01°17' E 103°45'0 0.0
2014-Nov-18 02:24N 01°17' E 103°45'0 0.0
2014-Nov-18 01:12N 01°17' E 103°45'0 0.0
2014-Nov-18 00:30N 01°17' E 103°45'0 0.0
2014-Nov-17 23:30N 01°17' E 103°45'0 0.0
2014-Nov-17 22:24N 01°17' E 103°45'0 0.5
2014-Nov-17 21:33N 01°16' E 103°45'5 5.4
2014-Nov-17 20:33N 01°13' E 103°49'9 9.3
2014-Nov-17 19:33N 01°15' E 103°58'1413.7
2014-Nov-17 18:33N 01°18' E 104°11'  
2014-Nov-14 06:33N 22°09' E 114°12'1212.1
2014-Nov-14 05:33N 22°19' E 114°05'1111.2
2014-Nov-14 04:33N 22°23' E 113°54'4 3.8
2014-Nov-14 03:32N 22°27' E 113°53'0 0.0
2014-Nov-14 02:28N 22°27' E 113°53'0 0.0
2014-Nov-14 01:28N 22°27' E 113°53'0 0.0
2014-Nov-14 00:28N 22°27' E 113°53'0 0.0
2014-Nov-13 23:10N 22°27' E 113°53'0 0.0
2014-Nov-13 22:28N 22°27' E 113°53'0 0.0
2014-Nov-13 21:16N 22°27' E 113°53'0 0.0
2014-Nov-13 20:22N 22°27' E 113°53'0 0.0
2014-Nov-13 19:28N 22°27' E 113°53'0 0.0
2014-Nov-13 18:28N 22°27' E 113°53'0 0.0
2014-Nov-13 17:28N 22°27' E 113°53'0 0.0
2014-Nov-13 16:28N 22°27' E 113°53'2 2.5
2014-Nov-13 15:33N 22°25' E 113°53'12 8.6
2014-Nov-13 14:11N 22°20' E 114°05'14311.1
2014-Nov-13 01:19N 22°43' E 116°38'1111.2
2014-Nov-13 00:18N 22°48' E 116°49'5911.6
2014-Nov-12 19:13N 23°21' E 117°42'1910.4
2014-Nov-12 17:26N 23°32' E 117°58'910.4
2014-Nov-12 16:32N 23°39' E 118°05'1010.5
2014-Nov-12 15:33N 23°45' E 118°14'1010.5
2014-Nov-12 14:33N 23°51' E 118°23'1510.6
2014-Nov-12 13:06N 24°01' E 118°36'3411.3
2014-Nov-12 10:06N 24°23' E 119°05'611.5
2014-Nov-12 09:33N 24°27' E 119°10'  
Track history (hours):
 
Tides and Currents Weather Stations Pressure Air Temp Water Temp Dewpoint Dewpoint Depression Visibility Wind Speed Wind Dir Waves Ship Positions

Hanjin Philadelphia

Last reported at 2014-Nov-22 00:00 UTC. Time now 2014-Nov-22 01:55 UTC.
Position N 05°30' E 081°18'.

Length 282.1 m; beam 32.2 m; draft 13 m.

Type: Ship. MMSI: 636026894.

Wind from 230 at 16 knots

Barometer 1010.0 mb
Air temperature 25.5 ° C
Visibility: greater than 5.4 NM
Dewpoint 24.1 ° C
Water temperature 28.2 ° C

Date/timePositionNaut miles runAvg speedWind from/ knotsBaromVisibWave heightAir tempDewpointWater temp
2014-Nov-22 00:00N 05°30' E 081°18'20917.4 230 / 161010.0 5.4 25.524.128.2
2014-Nov-21 12:00N 05°30' E 084°48'   340 / 121009.0 5.4 27.024.329.3
2014-Nov-18 13:20N 01°12' E 103°33'1012.7
2014-Nov-18 12:32N 01°15' E 103°43'3 3.0
2014-Nov-18 11:33N 01°17' E 103°45'0 0.0
2014-Nov-18 10:32N 01°17' E 103°45'0 0.0
2014-Nov-18 09:32N 01°17' E 103°45'0 0.0
2014-Nov-18 08:20N 01°17' E 103°45'0 0.0
2014-Nov-18 07:32N 01°17' E 103°45'0 0.0
2014-Nov-18 06:32N 01°17' E 103°45'0 0.0
2014-Nov-18 05:32N 01°17' E 103°45'0 0.0
2014-Nov-18 04:24N 01°17' E 103°45'0 0.0
2014-Nov-18 03:33N 01°17' E 103°45'0 0.0
2014-Nov-18 02:24N 01°17' E 103°45'0 0.0
2014-Nov-18 01:12N 01°17' E 103°45'0 0.0
2014-Nov-18 00:30N 01°17' E 103°45'0 0.0
2014-Nov-17 23:30N 01°17' E 103°45'0 0.0
2014-Nov-17 22:24N 01°17' E 103°45'0 0.5
2014-Nov-17 21:33N 01°16' E 103°45'5 5.4
2014-Nov-17 20:33N 01°13' E 103°49'9 9.3
2014-Nov-17 19:33N 01°15' E 103°58'1413.7
2014-Nov-17 18:33N 01°18' E 104°11'  
2014-Nov-14 06:33N 22°09' E 114°12'1212.1
2014-Nov-14 05:33N 22°19' E 114°05'1111.2
2014-Nov-14 04:33N 22°23' E 113°54'4 3.8
2014-Nov-14 03:32N 22°27' E 113°53'0 0.0
2014-Nov-14 02:28N 22°27' E 113°53'0 0.0
2014-Nov-14 01:28N 22°27' E 113°53'0 0.0
2014-Nov-14 00:28N 22°27' E 113°53'0 0.0
2014-Nov-13 23:10N 22°27' E 113°53'0 0.0
2014-Nov-13 22:28N 22°27' E 113°53'0 0.0
2014-Nov-13 21:16N 22°27' E 113°53'0 0.0
2014-Nov-13 20:22N 22°27' E 113°53'0 0.0
2014-Nov-13 19:28N 22°27' E 113°53'0 0.0
2014-Nov-13 18:28N 22°27' E 113°53'0 0.0
2014-Nov-13 17:28N 22°27' E 113°53'0 0.0
2014-Nov-13 16:28N 22°27' E 113°53'2 2.5
2014-Nov-13 15:33N 22°25' E 113°53'12 8.6
2014-Nov-13 14:11N 22°20' E 114°05'14311.1
2014-Nov-13 01:19N 22°43' E 116°38'1111.2
2014-Nov-13 00:18N 22°48' E 116°49'5911.6
2014-Nov-12 19:13N 23°21' E 117°42'1910.4
2014-Nov-12 17:26N 23°32' E 117°58'910.4
2014-Nov-12 16:32N 23°39' E 118°05'1010.5
2014-Nov-12 15:33N 23°45' E 118°14'1010.5
2014-Nov-12 14:33N 23°51' E 118°23'1510.6
2014-Nov-12 13:06N 24°01' E 118°36'3411.3
2014-Nov-12 10:06N 24°23' E 119°05'611.5
2014-Nov-12 09:33N 24°27' E 119°10'  

Dump ship's entire track history